Time;durP1;ratioP1;P1;durP2;ratioP2;P2;SDS_P1;SDS_P2;PMS_P1;PMS_P2;Temp;Humidity;BMP_temperature;BMP_pressure;BME280_temperature;BME280_humidity;BME280_pressure;Samples;Min_cycle;Max_cycle;Signal;HPM_P1;HPM_P2
2022/05/01 00:02:09;;;;;;;10.17;7.73;;;;;;;13.94;100.00;99876.00;5027047;28;20201;-53
2022/05/01 00:04:38;;;;;;;10.93;7.67;;;;;;;13.81;100.00;99883.44;5027138;28;20790;-53
2022/05/01 00:07:05;;;;;;;6.60;5.97;;;;;;;13.87;100.00;99885.00;5026694;28;20296;-52
2022/05/01 00:09:31;;;;;;;6.87;6.27;;;;;;;13.83;100.00;99892.06;5027373;28;20588;-52
2022/05/01 00:11:59;;;;;;;7.63;7.00;;;;;;;13.67;100.00;99891.75;5027407;28;20662;-52
2022/05/01 00:14:26;;;;;;;9.17;7.00;;;;;;;13.75;100.00;99888.88;5027281;28;20585;-51
2022/05/01 00:16:52;;;;;;;7.37;6.63;;;;;;;13.70;100.00;99888.19;5037444;28;20232;-53
2022/05/01 00:19:19;;;;;;;8.50;7.77;;;;;;;13.68;100.00;99887.38;5046664;28;20199;-53
2022/05/01 00:21:48;;;;;;;8.00;7.37;;;;;;;13.68;100.00;99898.66;5046771;28;20201;-51
2022/05/01 00:24:14;;;;;;;11.37;8.17;;;;;;;13.72;100.00;99908.09;5046619;28;20199;-52
2022/05/01 00:26:41;;;;;;;9.27;8.07;;;;;;;13.63;100.00;99899.75;5046716;28;20612;-53
2022/05/01 00:29:08;;;;;;;9.63;8.73;;;;;;;13.60;100.00;99898.09;5046468;28;20231;-52
2022/05/01 00:31:36;;;;;;;14.30;8.90;;;;;;;13.56;100.00;99896.50;5046646;28;20211;-53
2022/05/01 00:36:48;;;;;;;9.77;8.80;;;;;;;13.44;100.00;99894.31;5046618;28;20192;-52
2022/05/01 00:39:15;;;;;;;11.20;8.77;;;;;;;13.37;100.00;99906.72;5046573;28;20203;-52
2022/05/01 00:41:43;;;;;;;11.77;9.10;;;;;;;13.40;100.00;99896.19;5046720;28;20197;-52
2022/05/01 00:44:11;;;;;;;10.60;9.33;;;;;;;13.46;100.00;99905.53;5046391;28;20295;-53
2022/05/01 00:46:41;;;;;;;9.40;8.60;;;;;;;13.39;100.00;99910.13;5046895;28;20239;-59
2022/05/01 00:49:10;;;;;;;9.57;8.57;;;;;;;13.33;100.00;99919.88;5050034;28;20224;-59
2022/05/01 00:51:42;;;;;;;10.80;9.60;;;;;;;13.26;100.00;99919.25;5050144;28;20692;-59
2022/05/01 00:54:12;;;;;;;9.53;8.53;;;;;;;13.23;100.00;99921.97;5049979;28;20674;-59
2022/05/01 00:56:41;;;;;;;10.53;9.03;;;;;;;13.08;100.00;99899.00;5049909;28;20201;-59
2022/05/01 00:59:09;;;;;;;9.73;8.47;;;;;;;13.23;100.00;99921.97;5049573;28;20204;-59
2022/05/01 01:01:37;;;;;;;10.27;9.20;;;;;;;13.18;100.00;99904.78;5049742;28;20269;-59
2022/05/01 01:04:04;;;;;;;9.20;8.30;;;;;;;13.30;100.00;99917.41;5049629;28;20199;-59
2022/05/01 01:06:31;;;;;;;9.90;8.90;;;;;;;13.27;100.00;99909.69;5049883;28;20381;-58
2022/05/01 01:08:58;;;;;;;10.63;9.27;;;;;;;13.26;100.00;99902.75;5049642;28;20673;-57
2022/05/01 01:11:26;;;;;;;9.47;8.53;;;;;;;13.18;100.00;99890.00;5049510;28;20204;-58
2022/05/01 01:13:54;;;;;;;10.10;9.20;;;;;;;13.12;100.00;99889.28;5049544;28;20245;-53
2022/05/01 01:16:21;;;;;;;10.33;9.43;;;;;;;13.12;100.00;99889.28;5049769;28;20751;-52
2022/05/01 01:18:48;;;;;;;10.17;9.37;;;;;;;13.03;100.00;99880.88;5049577;28;20291;-57
2022/05/01 01:21:17;;;;;;;9.97;8.90;;;;;;;13.02;100.00;99880.94;5049520;28;20612;-59
2022/05/01 01:23:44;;;;;;;11.27;10.13;;;;;;;12.89;100.00;99846.59;5049338;28;20201;-59
2022/05/01 01:26:14;;;;;;;10.20;9.37;;;;;;;12.86;100.00;99854.56;5049001;28;20228;-60
2022/05/01 01:28:42;;;;;;;10.07;9.20;;;;;;;12.98;100.00;99877.56;5049531;28;20288;-59
2022/05/01 01:33:56;;;;;;;14.83;9.80;;;;;;;12.97;100.00;99881.09;5049281;28;20196;-60
2022/05/01 01:36:28;;;;;;;10.43;9.20;;;;;;;12.90;100.00;99881.34;5049258;28;20963;-59
2022/05/01 01:38:56;;;;;;;11.73;10.63;;;;;;;12.89;100.00;99882.22;5049397;28;20682;-52
2022/05/01 01:41:26;;;;;;;10.00;9.07;;;;;;;12.89;100.00;99883.09;5049072;27;20208;-60
2022/05/01 01:43:54;;;;;;;9.17;8.27;;;;;;;12.88;100.00;99880.53;5049069;28;20203;-60
2022/05/01 01:46:21;;;;;;;9.37;8.67;;;;;;;12.94;100.00;99880.34;5048870;28;20192;-59
2022/05/01 01:48:48;;;;;;;8.80;7.97;;;;;;;12.94;100.00;99881.19;5048924;28;20224;-59
2022/05/01 01:51:15;;;;;;;9.80;8.83;;;;;;;12.76;100.00;99850.50;5048724;28;20193;-52
2022/05/01 01:53:44;;;;;;;9.60;8.80;;;;;;;12.89;100.00;99885.69;5048887;28;20193;-52
2022/05/01 01:56:11;;;;;;;11.13;10.13;;;;;;;12.86;100.00;99885.81;5049016;28;20199;-52
2022/05/01 01:58:41;;;;;;;14.50;11.70;;;;;;;12.76;100.00;99873.94;5048987;28;20200;-53
2022/05/01 02:01:10;;;;;;;13.33;12.13;;;;;;;12.75;100.00;99874.88;5048997;28;20200;-51
2022/05/01 02:03:37;;;;;;;11.87;10.67;;;;;;;12.77;100.00;99873.06;5048915;28;20189;-53
2022/05/01 02:06:05;;;;;;;10.67;9.67;;;;;;;12.68;100.00;99874.22;5048665;28;20205;-54
2022/05/01 02:08:34;;;;;;;13.00;10.67;;;;;;;12.59;100.00;99873.66;5048499;28;20301;-58
2022/05/01 02:11:03;;;;;;;14.53;11.30;;;;;;;12.55;100.00;99874.63;5048602;28;20669;-59
2022/05/01 02:13:30;;;;;;;10.63;9.80;;;;;;;12.54;100.00;99867.72;5048757;28;20201;-55
2022/05/01 02:15:57;;;;;;;15.03;10.80;;;;;;;12.57;100.00;99859.81;5048701;28;20209;-58
2022/05/01 02:18:25;;;;;;;11.97;10.67;;;;;;;12.63;100.00;99868.31;5048365;28;20211;-59
2022/05/01 02:23:36;;;;;;;10.70;9.77;;;;;;;12.69;100.00;99867.25;5048690;28;20200;-52
2022/05/01 02:26:05;;;;;;;10.33;9.43;;;;;;;12.69;100.00;99875.91;5048233;28;20266;-52
2022/05/01 02:28:32;;;;;;;11.10;9.87;;;;;;;12.66;100.00;99865.59;5048292;28;20227;-54
2022/05/01 02:30:59;;;;;;;9.93;9.00;;;;;;;12.57;100.00;99867.63;5048574;28;20708;-59
2022/05/01 02:33:26;;;;;;;9.67;8.30;;;;;;;12.53;100.00;99864.25;5048189;28;20203;-58
2022/05/01 02:35:52;;;;;;;10.97;8.97;;;;;;;12.51;100.00;99876.50;5048649;28;20632;-53
2022/05/01 02:38:19;;;;;;;10.53;9.53;;;;;;;12.54;100.00;99867.72;5048188;28;20192;-53
2022/05/01 02:40:46;;;;;;;9.17;8.27;;;;;;;12.50;100.00;99871.34;5048275;28;20280;-51
2022/05/01 02:43:15;;;;;;;18.23;14.33;;;;;;;12.49;100.00;99875.69;5048065;28;20587;-59
2022/05/01 02:45:41;;;;;;;10.40;9.37;;;;;;;12.44;100.00;99876.72;5048546;28;20647;-59
2022/05/01 02:48:09;;;;;;;9.43;8.53;;;;;;;12.40;100.00;99875.13;5048165;28;20624;-59
2022/05/01 02:50:36;;;;;;;9.83;8.80;;;;;;;12.40;100.00;99875.13;5048229;28;20199;-58
2022/05/01 02:53:04;;;;;;;9.47;8.10;;;;;;;12.45;100.00;99875.81;5048224;28;20227;-59
2022/05/01 02:55:32;;;;;;;9.73;8.73;;;;;;;12.48;100.00;99876.59;5047941;28;20666;-58
2022/05/01 02:57:59;;;;;;;9.47;8.57;;;;;;;12.49;100.00;99877.44;5047674;28;20205;-59
2022/05/01 03:00:27;;;;;;;9.70;8.70;;;;;;;12.44;100.00;99874.13;5047996;28;20709;-59
2022/05/01 03:02:56;;;;;;;10.23;8.80;;;;;;;12.53;100.00;99879.03;5047781;28;20291;-58
2022/05/01 03:05:24;;;;;;;9.07;8.00;;;;;;;12.53;100.00;99876.44;5048221;28;20201;-59
2022/05/01 03:07:53;;;;;;;8.83;7.90;;;;;;;12.55;100.00;99883.28;5039284;27;20225;-52
2022/05/01 03:10:20;;;;;;;9.53;8.60;;;;;;;12.58;100.00;99879.75;5006283;28;20222;-52
2022/05/01 03:12:47;;;;;;;8.77;7.87;;;;;;;12.53;100.00;99874.69;5008229;28;20214;-52
2022/05/01 03:15:14;;;;;;;8.93;8.13;;;;;;;12.53;100.00;99876.44;5007403;28;20253;-53
2022/05/01 03:23:11;;;;;;;8.83;8.13;;;;;;;12.44;100.00;99879.31;5007254;28;20734;-59
2022/05/01 03:25:38;;;;;;;10.10;8.77;;;;;;;12.46;100.00;99875.78;5006945;28;20348;-58
2022/05/01 03:28:06;;;;;;;9.90;8.40;;;;;;;12.44;100.00;99874.13;5007138;28;20225;-58
2022/05/01 03:30:33;;;;;;;10.13;8.90;;;;;;;12.39;100.00;99876.03;5007096;28;20225;-58
2022/05/01 03:33:04;;;;;;;9.97;9.00;;;;;;;12.47;100.00;99884.44;5018631;28;20224;-58
2022/05/01 03:35:31;;;;;;;9.40;8.70;;;;;;;12.54;100.00;99885.94;5046557;28;20455;-51
2022/05/01 03:37:58;;;;;;;9.23;8.50;;;;;;;12.54;100.00;99885.94;5046699;28;20217;-59
2022/05/01 03:40:25;;;;;;;9.90;9.10;;;;;;;12.50;100.00;99881.75;5046148;28;20238;-59
2022/05/01 03:42:52;;;;;;;12.23;9.63;;;;;;;12.48;100.00;99883.53;5046578;28;20259;-59
2022/05/01 03:45:18;;;;;;;11.07;9.97;;;;;;;12.45;100.00;99886.22;5022059;28;20208;-59
2022/05/01 03:47:46;;;;;;;10.67;9.73;;;;;;;12.49;100.00;99880.91;5015364;28;20680;-59
2022/05/01 03:50:14;;;;;;;11.33;10.30;;;;;;;12.66;100.00;99869.94;5016169;28;20612;-59
2022/05/01 03:52:41;;;;;;;15.70;10.80;;;;;;;12.94;100.00;99882.94;5016058;28;20647;-59
2022/05/01 03:55:09;;;;;;;11.93;10.53;;;;;;;13.15;100.00;99873.59;5007287;28;20198;-59
2022/05/01 03:57:37;;;;;;;12.40;10.83;;;;;;;13.22;100.00;99872.47;5007216;28;20205;-59
2022/05/01 04:00:06;;;;;;;13.23;10.23;;;;;;;13.46;100.00;99887.28;5007093;28;20194;-59
2022/05/01 04:02:40;;;;;;;11.57;10.47;;;;;;;13.36;100.00;99862.44;5006764;28;20198;-60
2022/05/01 04:05:08;;;;;;;11.20;10.10;;;;;;;13.67;100.00;99904.78;5008130;28;20198;-59
2022/05/01 04:07:37;;;;;;;11.13;10.13;;;;;;;13.90;100.00;99913.56;5007243;28;20203;-58
2022/05/01 04:10:04;;;;;;;12.40;10.20;;;;;;;14.28;100.00;99912.16;5006058;28;20268;-59
2022/05/01 04:12:36;;;;;;;11.40;9.60;;;;;;;14.76;100.00;99919.91;5007270;28;20297;-53
2022/05/01 04:15:07;;;;;;;10.47;9.57;;;;;;;14.98;100.00;99878.94;5007141;28;20208;-53
2022/05/01 04:17:38;;;;;;;10.43;9.43;;;;;;;15.69;100.00;99919.53;5006326;28;20216;-53
2022/05/01 04:20:08;;;;;;;10.57;9.67;;;;;;;16.39;94.69;99920.78;5006414;28;20200;-52
2022/05/01 04:22:40;;;;;;;9.83;8.93;;;;;;;17.23;89.17;99926.34;5008076;28;20201;-53
2022/05/01 04:25:15;;;;;;;9.37;8.40;;;;;;;17.52;85.99;99929.28;5009503;28;20268;-52
2022/05/01 04:27:43;;;;;;;9.63;8.80;;;;;;;17.39;86.41;99916.78;5009477;28;20197;-59
2022/05/01 04:30:11;;;;;;;12.40;9.37;;;;;;;17.47;86.13;99919.03;5010729;28;20906;-59
2022/05/01 04:32:48;;;;;;;10.00;9.07;;;;;;;17.70;84.54;99918.75;5022384;28;20201;-59
2022/05/01 04:35:25;;;;;;;9.13;8.17;;;;;;;18.03;81.36;99917.91;5020486;28;20573;-59
2022/05/01 04:37:54;;;;;;;9.35;8.50;;;;;;;18.29;79.41;99919.97;5013855;28;20678;-59
2022/05/01 04:40:21;;;;;;;9.32;8.45;;;;;;;18.66;76.66;99923.25;5013951;28;20194;-58
2022/05/01 04:42:48;;;;;;;8.75;8.13;;;;;;;19.17;73.66;99922.97;5015217;28;20202;-59
2022/05/01 04:45:15;;;;;;;8.88;7.95;;;;;;;19.75;70.80;99916.09;5020094;28;20198;-60
2022/05/01 04:47:42;;;;;;;8.27;7.68;;;;;;;20.25;67.76;99929.63;5022211;28;20215;-52
2022/05/01 04:50:11;;;;;;;9.20;7.70;;;;;;;20.77;65.20;99930.84;5021410;28;20221;-53
2022/05/01 04:52:38;;;;;;;9.45;8.70;;;;;;;21.44;62.18;99935.22;5013447;28;20197;-53
2022/05/01 04:55:08;;;;;;;8.00;7.30;;;;;;;21.88;59.87;99931.34;5013209;28;20595;-53
2022/05/01 04:57:35;;;;;;;8.95;8.10;;;;;;;22.07;59.48;99934.44;5021893;28;20201;-53
2022/05/01 05:00:02;;;;;;;8.23;7.55;;;;;;;22.67;57.25;99939.00;5021822;28;20193;-61
2022/05/01 05:02:39;;;;;;;8.98;7.25;;;;;;;23.17;55.67;99933.50;5021484;28;20281;-58
2022/05/01 05:05:09;;;;;;;8.40;7.50;;;;;;;23.50;53.59;99942.56;5012790;28;20197;-59
2022/05/01 05:07:37;;;;;;;7.97;7.38;;;;;;;23.81;52.29;99939.31;5012819;28;20202;-59
2022/05/01 05:10:03;;;;;;;9.05;8.25;;;;;;;24.36;51.48;99944.78;5018391;28;20720;-59
2022/05/01 05:12:32;;;;;;;10.02;9.20;;;;;;;24.72;49.82;99941.03;5020867;28;20210;-59
2022/05/01 05:15:00;;;;;;;9.13;8.43;;;;;;;25.03;49.26;99953.53;5013219;28;20194;-59
2022/05/01 05:17:29;;;;;;;9.07;8.38;;;;;;;25.22;48.52;99948.38;5013062;28;20254;-59
2022/05/01 05:19:56;;;;;;;9.40;8.23;;;;;;;25.88;46.74;99954.34;5013211;28;20190;-59
2022/05/01 05:22:23;;;;;;;11.85;8.52;;;;;;;25.55;47.43;99954.50;5013939;28;20584;-57
2022/05/01 05:24:50;;;;;;;9.32;8.55;;;;;;;25.21;47.98;99949.34;5016574;28;20621;-53
2022/05/01 05:27:20;;;;;;;9.25;8.52;;;;;;;24.86;49.39;99935.41;5017497;28;20679;-57
2022/05/01 05:29:48;;;;;;;14.75;9.73;;;;;;;25.14;48.59;99918.09;5015193;28;20225;-56
2022/05/01 05:32:16;;;;;;;10.32;9.52;;;;;;;25.21;48.64;99949.34;5014677;28;20209;-54
2022/05/01 05:34:43;;;;;;;11.23;10.10;;;;;;;25.05;49.10;99948.94;5019841;28;20682;-54
2022/05/01 05:37:10;;;;;;;11.18;10.07;;;;;;;25.17;48.85;99947.91;5026782;28;20205;-54
2022/05/01 05:39:36;;;;;;;13.02;11.90;;;;;;;24.22;50.81;99946.72;5027932;28;20227;-53
2022/05/01 05:42:04;;;;;;;13.65;12.32;;;;;;;23.58;53.45;99952.63;5027818;28;20204;-53
2022/05/01 05:44:31;;;;;;;12.85;10.82;;;;;;;23.70;53.59;99957.81;5027908;28;20692;-54
2022/05/01 05:46:59;;;;;;;15.00;10.82;;;;;;;23.70;53.61;99957.81;5027862;28;20233;-54
2022/05/01 05:49:26;;;;;;;11.30;9.98;;;;;;;23.53;54.35;99958.25;5028265;28;20698;-53
2022/05/01 05:51:53;;;;;;;10.75;9.68;;;;;;;23.80;54.11;99956.16;5023662;28;20725;-54
2022/05/01 05:54:20;;;;;;;10.70;9.63;;;;;;;23.54;54.50;99965.25;5028523;28;20205;-56
2022/05/01 05:56:47;;;;;;;11.07;10.18;;;;;;;23.33;55.12;99958.88;5028040;28;20225;-53
2022/05/01 05:59:15;;;;;;;12.05;10.85;;;;;;;22.07;59.06;99968.81;5024350;28;20194;-55
2022/05/01 06:01:42;;;;;;;14.02;10.60;;;;;;;21.68;61.18;99970.53;5015834;28;20233;-56
2022/05/01 06:04:10;;;;;;;12.10;10.93;;;;;;;21.45;62.31;99965.94;5016413;28;20687;-56
2022/05/01 06:06:37;;;;;;;17.08;10.75;;;;;;;21.74;61.84;99964.84;5012113;28;20233;-56
2022/05/01 06:09:04;;;;;;;12.90;10.50;;;;;;;22.03;60.86;99975.25;5027681;28;20225;-56
2022/05/01 06:11:31;;;;;;;11.32;10.52;;;;;;;22.30;60.03;99970.69;5027767;28;20240;-56
2022/05/01 06:13:58;;;;;;;11.45;10.45;;;;;;;22.97;58.13;99965.91;5027897;28;20714;-55
2022/05/01 06:16:25;;;;;;;12.55;10.65;;;;;;;23.12;57.32;99966.59;5027799;28;20567;-57
2022/05/01 06:18:52;;;;;;;13.18;9.55;;;;;;;23.59;55.89;99971.03;5027813;28;20201;-55
2022/05/01 06:21:20;;;;;;;11.32;10.20;;;;;;;23.85;54.39;99961.09;5027631;28;20679;-56
2022/05/01 06:23:48;;;;;;;10.48;9.63;;;;;;;23.67;54.73;99971.31;5027987;28;20193;-56
2022/05/01 06:26:15;;;;;;;10.50;9.70;;;;;;;24.29;53.51;99964.78;4965899;28;1798810;-57
2022/05/01 06:28:42;;;;;;;11.05;10.05;;;;;;;24.35;53.04;99969.63;5028598;28;20670;-56
2022/05/01 06:31:09;;;;;;;11.75;9.23;;;;;;;24.90;51.33;99968.72;5028143;28;20221;-56
2022/05/01 06:33:37;;;;;;;10.82;9.85;;;;;;;24.43;51.84;99968.06;5028484;28;20201;-56
2022/05/01 06:36:04;;;;;;;9.85;9.07;;;;;;;23.66;53.83;99968.78;5028465;28;20202;-54
2022/05/01 06:38:34;;;;;;;10.48;9.40;;;;;;;23.63;54.42;99969.84;5028406;28;20197;-53
2022/05/01 06:41:03;;;;;;;12.15;9.40;;;;;;;24.28;52.80;99971.91;5027997;28;20197;-55
2022/05/01 06:43:30;;;;;;;9.63;8.93;;;;;;;24.83;50.79;99964.91;5028498;28;20193;-54
2022/05/01 06:45:57;;;;;;;9.68;8.82;;;;;;;25.38;49.63;99971.88;5027257;28;20197;-55
2022/05/01 06:48:24;;;;;;;11.50;8.70;;;;;;;25.85;48.74;99970.56;5028080;28;20203;-54
2022/05/01 06:50:51;;;;;;;10.98;9.13;;;;;;;25.86;47.71;99972.25;5028329;28;20598;-54
2022/05/01 06:53:18;;;;;;;9.27;8.48;;;;;;;25.81;47.22;99973.63;5025239;28;20202;-54
2022/05/01 06:55:46;;;;;;;9.02;8.27;;;;;;;25.46;48.68;99963.25;5007667;28;20347;-54
2022/05/01 06:58:13;;;;;;;10.43;8.57;;;;;;;25.63;48.70;99966.22;5007213;28;20226;-54
2022/05/01 07:00:40;;;;;;;9.88;8.30;;;;;;;25.73;48.21;99971.63;5008027;28;20241;-55
2022/05/01 07:03:07;;;;;;;9.13;8.43;;;;;;;26.39;46.64;99972.16;5007616;28;20224;-54
2022/05/01 07:05:34;;;;;;;10.95;8.18;;;;;;;26.87;45.34;99968.78;5007153;28;20230;-56
2022/05/01 07:08:01;;;;;;;7.45;7.05;;;;;;;26.91;43.54;99973.72;5007460;28;20302;-54
2022/05/01 07:10:28;;;;;;;8.13;7.45;;;;;;;27.38;43.33;99969.44;5007554;28;20234;-54
2022/05/01 07:12:57;;;;;;;6.90;6.45;;;;;;;27.40;41.71;99974.66;5026720;28;20229;-54
2022/05/01 07:15:23;;;;;;;7.15;6.75;;;;;;;27.66;41.97;99969.59;5046902;28;20726;-54
2022/05/01 07:17:50;;;;;;;8.45;6.88;;;;;;;27.74;42.76;99969.75;5047231;28;20221;-54
2022/05/01 07:20:17;;;;;;;7.97;7.47;;;;;;;28.04;40.83;99958.84;5046395;28;20227;-55
2022/05/01 07:22:44;;;;;;;7.88;7.03;;;;;;;27.89;40.55;99967.44;5046864;28;20217;-54
2022/05/01 07:25:11;;;;;;;8.02;7.43;;;;;;;27.86;41.42;99967.75;5046855;28;20247;-54
2022/05/01 07:27:38;;;;;;;7.75;7.15;;;;;;;27.80;41.29;99969.16;5046801;28;20303;-54
2022/05/01 07:30:08;;;;;;;7.40;6.70;;;;;;;27.93;40.69;99969.69;5047010;28;20627;-54
2022/05/01 07:32:34;;;;;;;7.30;6.80;;;;;;;27.15;42.25;99970.69;5046532;28;20216;-54
2022/05/01 07:35:01;;;;;;;7.90;7.38;;;;;;;27.00;42.29;99956.94;5046358;28;20230;-55
2022/05/01 07:37:29;;;;;;;8.30;7.55;;;;;;;26.82;43.23;99971.88;5046152;28;20248;-55
2022/05/01 07:39:57;;;;;;;7.22;6.82;;;;;;;26.30;42.47;99967.59;5029838;28;20257;-54
2022/05/01 07:42:24;;;;;;;8.15;7.55;;;;;;;25.57;44.41;99973.84;5041053;28;20319;-56
2022/05/01 07:44:51;;;;;;;8.73;7.75;;;;;;;25.40;44.22;99974.38;5047337;28;20188;-58
2022/05/01 07:47:20;;;;;;;9.68;8.75;;;;;;;25.40;44.25;99985.00;5047088;28;20730;-54
2022/05/01 07:49:47;;;;;;;7.50;7.00;;;;;;;25.45;43.25;99983.69;5046925;28;20717;-56
2022/05/01 07:52:16;;;;;;;6.78;6.32;;;;;;;25.29;42.30;99981.44;5047098;28;20203;-56
2022/05/01 07:54:43;;;;;;;6.13;5.72;;;;;;;25.69;40.30;99986.13;5047137;28;20197;-56
2022/05/01 07:57:10;;;;;;;5.45;5.15;;;;;;;26.15;39.87;99984.88;5046772;28;20232;-55
2022/05/01 07:59:36;;;;;;;5.65;5.35;;;;;;;25.79;40.29;99957.78;5046937;28;20202;-55
2022/05/01 08:02:04;;;;;;;5.40;4.90;;;;;;;25.96;38.74;99967.00;5046944;28;20588;-55
2022/05/01 08:04:32;;;;;;;6.10;5.50;;;;;;;26.27;39.20;99966.09;5046924;28;20222;-54
2022/05/01 08:07:00;;;;;;;6.20;5.70;;;;;;;26.22;40.19;99978.06;5046927;28;20207;-54
2022/05/01 08:09:27;;;;;;;6.10;5.70;;;;;;;26.76;39.06;99967.06;5046905;28;20382;-55
2022/05/01 08:11:54;;;;;;;6.05;5.68;;;;;;;27.04;37.85;99965.50;5047103;28;20589;-54
2022/05/01 08:14:21;;;;;;;5.50;5.10;;;;;;;26.61;38.25;99958.66;5046956;28;20193;-54
2022/05/01 08:16:49;;;;;;;6.03;5.45;;;;;;;26.03;38.91;99958.38;5046777;28;20208;-55
2022/05/01 08:22:02;;;;;;;6.28;5.38;;;;;;;27.21;37.13;99951.47;5046794;28;20196;-55
2022/05/01 08:24:29;;;;;;;4.63;4.22;;;;;;;27.88;35.18;99960.47;5046731;28;20200;-56
2022/05/01 08:26:56;;;;;;;5.13;4.70;;;;;;;28.30;34.19;99950.25;5046818;28;20206;-56
2022/05/01 08:29:23;;;;;;;5.38;4.97;;;;;;;28.61;33.75;99946.28;5046581;28;20204;-54
2022/05/01 08:31:50;;;;;;;6.72;4.75;;;;;;;28.28;34.29;99941.53;5046564;28;20315;-55
2022/05/01 08:34:18;;;;;;;5.35;4.85;;;;;;;27.84;33.99;99938.56;5046513;28;20204;-54
2022/05/01 08:36:45;;;;;;;5.05;4.75;;;;;;;27.95;33.81;99941.06;5046704;28;20205;-55
2022/05/01 08:39:14;;;;;;;5.13;4.40;;;;;;;27.83;32.18;99943.03;5046378;28;20212;-55
2022/05/01 08:41:41;;;;;;;4.90;4.43;;;;;;;27.18;33.99;99934.94;5046442;28;20195;-54
2022/05/01 08:44:13;;;;;;;4.93;4.57;;;;;;;26.37;35.91;99935.03;5046674;28;20590;-54
2022/05/01 08:46:56;;;;;;;5.47;5.07;;;;;;;26.09;36.71;99926.88;5046481;28;20283;-54
2022/05/01 08:49:25;;;;;;;4.85;4.50;;;;;;;25.71;37.40;99925.69;5042273;28;20197;-55
2022/05/01 08:51:53;;;;;;;4.75;4.35;;;;;;;25.60;37.62;99933.72;5026796;28;20599;-55
2022/05/01 08:54:24;;;;;;;5.45;4.25;;;;;;;25.04;37.02;99920.69;5025988;28;20197;-55
2022/05/01 08:56:51;;;;;;;3.92;3.45;;;;;;;24.99;36.49;99914.03;5026654;28;20567;-55
2022/05/01 08:59:19;;;;;;;3.13;2.92;;;;;;;25.17;36.05;99904.56;5026508;28;20193;-55
2022/05/01 09:01:47;;;;;;;3.70;3.22;;;;;;;25.48;34.43;99914.31;5026310;28;20198;-54
2022/05/01 09:04:14;;;;;;;4.90;3.10;;;;;;;25.48;34.29;99908.16;5026158;28;20223;-55
2022/05/01 09:06:43;;;;;;;3.33;3.13;;;;;;;25.57;35.00;99915.34;5026231;28;20201;-55
2022/05/01 09:09:11;;;;;;;3.55;3.25;;;;;;;24.72;35.81;99909.16;5028676;28;20225;-56
2022/05/01 09:14:25;;;;;;;3.45;3.15;;;;;;;25.30;34.75;99902.56;5029691;28;20704;-54
2022/05/01 09:17:16;;;;;;;4.55;3.20;;;;;;;25.03;34.70;99904.88;5029555;28;20197;-55
2022/05/01 09:19:44;;;;;;;3.40;3.20;;;;;;;25.15;35.02;99902.03;5029526;28;20259;-55
2022/05/01 09:22:12;;;;;;;3.47;3.28;;;;;;;25.40;34.05;99903.47;5029263;28;20203;-56
2022/05/01 09:24:39;;;;;;;2.92;2.72;;;;;;;25.39;31.17;99893.84;5029426;28;20332;-55
2022/05/01 09:27:24;;;;;;;3.20;2.63;;;;;;;25.88;31.22;99893.16;5029310;28;20193;-55
2022/05/01 09:30:07;;;;;;;2.45;2.35;;;;;;;25.89;29.57;99891.34;5028993;28;20577;-55
2022/05/01 09:32:38;;;;;;;2.67;2.47;;;;;;;25.62;31.26;99883.94;5029360;28;20211;-55
2022/05/01 09:35:06;;;;;;;3.13;2.92;;;;;;;25.80;32.37;99876.19;5027144;28;20193;-54
2022/05/01 09:37:33;;;;;;;2.72;2.53;;;;;;;26.05;33.15;99875.75;5009593;28;20201;-55
2022/05/01 09:40:00;;;;;;;2.90;2.70;;;;;;;25.35;31.07;99878.28;5009711;28;20202;-54
2022/05/01 09:42:34;;;;;;;4.47;4.07;;;;;;;25.37;31.48;99868.34;5009597;28;20198;-54
2022/05/01 09:45:06;;;;;;;3.20;2.60;;;;;;;25.35;31.74;99857.84;5009679;28;20209;-55
2022/05/01 09:47:41;;;;;;;3.30;3.10;;;;;;;25.28;32.94;99860.16;5009543;28;20598;-55
2022/05/01 09:50:09;;;;;;;2.95;2.75;;;;;;;25.88;33.76;99855.09;5009271;28;20201;-55
2022/05/01 09:53:06;;;;;;;3.40;3.20;;;;;;;26.18;32.07;99859.56;5019892;28;20201;-55
2022/05/01 09:55:34;;;;;;;2.83;2.70;;;;;;;26.22;30.15;99859.16;5069679;28;20200;-55
2022/05/01 09:58:07;;;;;;;2.80;2.65;;;;;;;26.26;30.50;99857.06;5023176;28;20202;-55
2022/05/01 10:00:38;;;;;;;2.60;2.50;;;;;;;26.41;30.17;99845.09;5009028;28;20197;-55
2022/05/01 10:03:25;;;;;;;2.63;2.53;;;;;;;26.19;29.61;99845.25;5020338;28;20203;-55
2022/05/01 10:05:54;;;;;;;4.25;2.63;;;;;;;26.68;29.94;99836.44;5028889;28;20201;-54
2022/05/01 10:08:22;;;;;;;2.65;2.53;;;;;;;26.31;30.81;99845.06;5028828;28;20197;-55
2022/05/01 10:10:51;;;;;;;3.05;2.80;;;;;;;25.89;31.68;99836.34;5028739;28;20312;-54
2022/05/01 10:13:20;;;;;;;3.55;2.33;;;;;;;25.77;29.88;99839.22;5028650;28;20254;-55
2022/05/01 10:15:47;;;;;;;2.53;2.40;;;;;;;24.94;30.55;99832.13;5028978;28;20252;-54
2022/05/01 10:18:15;;;;;;;2.75;2.55;;;;;;;24.45;31.99;99825.50;5028827;28;20228;-55
2022/05/01 10:20:43;;;;;;;4.25;2.78;;;;;;;24.44;33.19;99821.16;5027435;28;20286;-57
2022/05/01 10:23:11;;;;;;;2.80;2.60;;;;;;;23.69;35.24;99794.47;5028625;28;20237;-54
2022/05/01 10:25:53;;;;;;;2.95;2.72;;;;;;;23.60;34.96;99797.81;5028449;28;20228;-56
2022/05/01 10:28:42;;;;;;;3.42;3.13;;;;;;;23.22;35.05;99802.56;5028483;28;20201;-54
2022/05/01 10:34:22;;;;;;;3.10;2.90;;;;;;;22.32;36.07;99799.53;5028664;28;20204;-55
2022/05/01 10:37:00;;;;;;;2.65;2.45;;;;;;;22.25;36.20;99800.06;5028467;28;20201;-55
2022/05/01 10:39:33;;;;;;;3.60;2.25;;;;;;;22.30;35.89;99782.09;5028525;28;20197;-54
2022/05/01 10:42:01;;;;;;;4.13;2.80;;;;;;;22.13;35.58;99793.88;5028426;28;20197;-55
2022/05/01 10:44:31;;;;;;;2.50;2.30;;;;;;;21.81;35.27;99790.00;5028150;28;20257;-55
2022/05/01 10:47:06;;;;;;;3.17;2.88;;;;;;;21.67;35.31;99783.06;5028120;28;20691;-54
2022/05/01 10:49:36;;;;;;;2.88;2.67;;;;;;;21.59;36.50;99764.25;5028132;28;20232;-55
2022/05/01 10:52:18;;;;;;;2.30;2.17;;;;;;;21.65;36.27;99784.97;5028329;28;20224;-54
2022/05/01 10:54:52;;;;;;;2.58;2.17;;;;;;;21.52;36.90;99777.06;5028010;28;20197;-55
2022/05/01 10:57:19;;;;;;;3.40;2.63;;;;;;;21.51;37.34;99766.59;5027697;28;20251;-55
2022/05/01 11:00:08;;;;;;;2.67;2.47;;;;;;;21.48;36.70;99766.78;5027763;28;20194;-55
2022/05/01 11:02:39;;;;;;;2.65;2.42;;;;;;;21.55;38.56;99763.63;5028049;28;20243;-56
2022/05/01 11:05:08;;;;;;;2.65;2.45;;;;;;;21.71;38.07;99763.38;5027936;28;20198;-56
2022/05/01 11:07:39;;;;;;;2.95;2.35;;;;;;;21.85;37.72;99762.41;5027936;28;20194;-56
2022/05/01 11:10:09;;;;;;;2.88;2.60;;;;;;;21.89;37.98;99758.63;5028264;28;20834;-55
2022/05/01 11:12:36;;;;;;;4.38;3.17;;;;;;;21.83;37.57;99756.38;5027963;28;20221;-55
2022/05/01 11:15:08;;;;;;;3.22;2.17;;;;;;;21.71;36.03;99747.53;5028036;28;20666;-54
2022/05/01 11:17:54;;;;;;;2.15;1.98;;;;;;;21.74;35.04;99742.88;5027953;28;20662;-55
2022/05/01 11:20:34;;;;;;;2.83;2.55;;;;;;;21.68;34.72;99748.59;5027826;28;20726;-55
2022/05/01 11:23:30;;;;;;;2.33;2.22;;;;;;;21.51;35.85;99743.66;5027734;28;20197;-55
2022/05/01 11:26:14;;;;;;;2.75;2.55;;;;;;;21.50;34.77;99749.91;5027446;28;20233;-54
2022/05/01 11:28:46;;;;;;;2.45;2.35;;;;;;;21.54;35.65;99748.75;5027624;28;20209;-54
2022/05/01 11:31:44;;;;;;;2.33;2.13;;;;;;;21.50;34.47;99741.97;5026909;28;20232;-54
2022/05/01 11:34:54;;;;;;;2.72;2.53;;;;;;;21.47;35.47;99736.91;5027723;28;20262;-54
2022/05/01 11:37:23;;;;;;;2.78;2.58;;;;;;;21.22;36.88;99734.31;5027738;28;20269;-55
2022/05/01 11:40:28;;;;;;;2.70;2.50;;;;;;;21.20;37.46;99733.56;5027459;28;20198;-54
2022/05/01 11:43:16;;;;;;;2.25;2.15;;;;;;;21.22;36.73;99729.03;5027301;28;20590;-54
2022/05/01 11:45:45;;;;;;;2.20;2.10;;;;;;;21.35;36.52;99729.84;5027427;28;20206;-54
2022/05/01 11:48:14;;;;;;;2.40;2.30;;;;;;;21.38;36.20;99709.34;5027436;28;20196;-55
2022/05/01 11:50:42;;;;;;;3.80;1.98;;;;;;;21.64;36.13;99725.16;5021129;28;20729;-55
2022/05/01 11:53:18;;;;;;;3.28;1.90;;;;;;;21.66;35.54;99726.75;5013254;28;20225;-54
2022/05/01 12:04:26;;;;;;;2.10;2.00;;;;;;;21.64;34.57;99720.72;5017123;28;20594;-54
2022/05/01 12:07:00;;;;;;;1.75;1.63;;;;;;;21.71;34.25;99706.09;5016325;28;20683;-54
2022/05/01 12:09:28;;;;;;;2.20;2.10;;;;;;;21.82;34.83;99702.69;5015423;28;20279;-54